St George Municipal Airport
KSGU : now visible

Airfield :











YOU CAN JOIN US ON...

 
LOGIN :

Register | Disclaimer

   EN    FR    IT 

 









Legend :    VFR   Marginal VFR   IFR   Intensive IFR   Very Intensive IFR
Visi :
Ceiling :
>= 8 km
>= 3000ft
5 to 8 km
1000 to 3000 ft
1500m to 5 km
500 to 1000 ft
800 to 1500m
200 to 500 ft
< 800m
< 200 ft
Symbols :   Thunderstorms  Fog  Heavy snow  Heavy precipitations  Wind > 20 kt







- Airport Elevation : 2941 ft


KSGU - St George Municipal

CURRENT METAR :
  • 181156Z AUTO 00000KT 10SM CLR 14/M07 A2995 RMK AO2 SLP114 T01441067 10211 20144 53001

EXPIRED METARs :
  • 181056Z AUTO 00000KT 10SM CLR 17/M06 A2995 RMK AO2 SLP110 T01671056
  • 180956Z AUTO 12005KT 10SM CLR 17/M07 A2994 RMK AO2 SLP108 T01721067

TAF KSGU
Valid from the 18 at 12:00 until the 19 at 12:00 UTC


181120Z 1812/1912 VRB04KT P6SM SKC
FM182000 22015G25KT P6SM SKC
FM190300 16008KT P6SM SKC
No reported NOTAMs for that airfield.



MET'MAP, your aeronautical weather chart ! - Copyright ORBIFLY December 2007 - Disclaimer

ORBIFLY MET'MAP TEAM :

Programming & Development : Alexandra Zaïnal
Concept & Development : Baudouin d'Aumeries
Co-Development & Prog : Marc-Olivier Méhu
Technical & hardware support : Manuel Goepfert

Contact : metmap@orbifly.com




SOURCES & CREDITS :

   NOAA       Earth
Advisory